sensor_id;sensor_type;location;lat;lon;timestamp;P1;P2;P0
79537;PMS5003;68989;52.032;5.152;2023-06-26T00:01:33;15;15;
79537;PMS5003;68989;52.032;5.152;2023-06-26T00:04:00;21;21;
79537;PMS5003;68989;52.032;5.152;2023-06-26T00:06:27;20;17;
79537;PMS5003;68989;52.032;5.152;2023-06-26T00:08:54;15;15;
79537;PMS5003;68989;52.032;5.152;2023-06-26T00:11:22;18;18;
79537;PMS5003;68989;52.032;5.152;2023-06-26T00:13:50;21;21;
79537;PMS5003;68989;52.032;5.152;2023-06-26T00:16:17;18;17;
79537;PMS5003;68989;52.032;5.152;2023-06-26T00:18:44;13;13;
79537;PMS5003;68989;52.032;5.152;2023-06-26T00:21:11;19;17;
79537;PMS5003;68989;52.032;5.152;2023-06-26T00:23:39;18;18;
79537;PMS5003;68989;52.032;5.152;2023-06-26T00:26:05;18;18;
79537;PMS5003;68989;52.032;5.152;2023-06-26T00:28:33;23;20;
79537;PMS5003;68989;52.032;5.152;2023-06-26T00:31:00;18;18;
79537;PMS5003;68989;52.032;5.152;2023-06-26T00:33:27;17;16;
79537;PMS5003;68989;52.032;5.152;2023-06-26T00:35:54;18;18;
79537;PMS5003;68989;52.032;5.152;2023-06-26T00:38:21;15;15;
79537;PMS5003;68989;52.032;5.152;2023-06-26T00:40:48;16;16;
79537;PMS5003;68989;52.032;5.152;2023-06-26T00:43:17;20;18;
79537;PMS5003;68989;52.032;5.152;2023-06-26T00:45:43;17;17;
79537;PMS5003;68989;52.032;5.152;2023-06-26T00:48:11;20;18;
79537;PMS5003;68989;52.032;5.152;2023-06-26T00:50:38;15;15;
79537;PMS5003;68989;52.032;5.152;2023-06-26T00:53:07;18;17;
79537;PMS5003;68989;52.032;5.152;2023-06-26T00:55:37;18;18;
79537;PMS5003;68989;52.032;5.152;2023-06-26T00:58:04;15;15;
79537;PMS5003;68989;52.032;5.152;2023-06-26T01:01:32;16;15;
79537;PMS5003;68989;52.032;5.152;2023-06-26T01:04:00;15;15;
79537;PMS5003;68989;52.032;5.152;2023-06-26T01:06:27;17;13;
79537;PMS5003;68989;52.032;5.152;2023-06-26T01:08:57;19;19;
79537;PMS5003;68989;52.032;5.152;2023-06-26T01:11:25;16;16;
79537;PMS5003;68989;52.032;5.152;2023-06-26T01:13:52;16;16;
79537;PMS5003;68989;52.032;5.152;2023-06-26T01:16:20;16;15;
79537;PMS5003;68989;52.032;5.152;2023-06-26T01:18:49;12;12;
79537;PMS5003;68989;52.032;5.152;2023-06-26T01:21:17;16;15;
79537;PMS5003;68989;52.032;5.152;2023-06-26T01:23:47;14;14;
79537;PMS5003;68989;52.032;5.152;2023-06-26T01:26:23;16;15;
79537;PMS5003;68989;52.032;5.152;2023-06-26T01:28:53;16;14;
79537;PMS5003;68989;52.032;5.152;2023-06-26T01:31:24;15;15;
79537;PMS5003;68989;52.032;5.152;2023-06-26T01:33:54;15;15;
79537;PMS5003;68989;52.032;5.152;2023-06-26T01:36:22;15;14;
79537;PMS5003;68989;52.032;5.152;2023-06-26T01:38:50;12;12;
79537;PMS5003;68989;52.032;5.152;2023-06-26T01:41:17;14;12;
79537;PMS5003;68989;52.032;5.152;2023-06-26T01:43:49;12;12;
79537;PMS5003;68989;52.032;5.152;2023-06-26T01:46:30;12;11;
79537;PMS5003;68989;52.032;5.152;2023-06-26T01:49:07;12;12;
79537;PMS5003;68989;52.032;5.152;2023-06-26T01:51:42;11;11;
79537;PMS5003;68989;52.032;5.152;2023-06-26T01:54:17;11;11;
79537;PMS5003;68989;52.032;5.152;2023-06-26T01:56:48;14;13;
79537;PMS5003;68989;52.032;5.152;2023-06-26T01:59:19;8;7;
79537;PMS5003;68989;52.032;5.152;2023-06-26T02:01:48;12;12;
79537;PMS5003;68989;52.032;5.152;2023-06-26T02:04:16;14;11;
79537;PMS5003;68989;52.032;5.152;2023-06-26T02:06:44;12;12;
79537;PMS5003;68989;52.032;5.152;2023-06-26T02:09:13;8;8;
79537;PMS5003;68989;52.032;5.152;2023-06-26T02:11:41;9;9;
79537;PMS5003;68989;52.032;5.152;2023-06-26T02:14:09;9;9;
79537;PMS5003;68989;52.032;5.152;2023-06-26T02:16:37;11;10;
79537;PMS5003;68989;52.032;5.152;2023-06-26T02:19:06;8;8;
79537;PMS5003;68989;52.032;5.152;2023-06-26T02:21:34;11;8;
79537;PMS5003;68989;52.032;5.152;2023-06-26T02:24:03;10;10;
79537;PMS5003;68989;52.032;5.152;2023-06-26T02:26:32;8;8;
79537;PMS5003;68989;52.032;5.152;2023-06-26T02:28:59;8;8;
79537;PMS5003;68989;52.032;5.152;2023-06-26T02:31:27;7;6;
79537;PMS5003;68989;52.032;5.152;2023-06-26T02:33:55;7;7;
79537;PMS5003;68989;52.032;5.152;2023-06-26T02:36:22;9;9;
79537;PMS5003;68989;52.032;5.152;2023-06-26T02:38:50;9;9;
79537;PMS5003;68989;52.032;5.152;2023-06-26T02:41:18;8;8;
79537;PMS5003;68989;52.032;5.152;2023-06-26T02:43:46;10;10;
79537;PMS5003;68989;52.032;5.152;2023-06-26T02:46:14;8;8;
79537;PMS5003;68989;52.032;5.152;2023-06-26T02:48:42;9;9;
79537;PMS5003;68989;52.032;5.152;2023-06-26T02:51:10;9;9;
79537;PMS5003;68989;52.032;5.152;2023-06-26T02:53:38;7;7;
79537;PMS5003;68989;52.032;5.152;2023-06-26T02:56:08;9;9;
79537;PMS5003;68989;52.032;5.152;2023-06-26T02:58:38;7;7;
79537;PMS5003;68989;52.032;5.152;2023-06-26T03:01:07;7;6;
79537;PMS5003;68989;52.032;5.152;2023-06-26T03:03:34;7;7;
79537;PMS5003;68989;52.032;5.152;2023-06-26T03:06:02;7;7;
79537;PMS5003;68989;52.032;5.152;2023-06-26T03:08:31;11;11;
79537;PMS5003;68989;52.032;5.152;2023-06-26T03:11:00;9;8;
79537;PMS5003;68989;52.032;5.152;2023-06-26T03:13:28;10;10;
79537;PMS5003;68989;52.032;5.152;2023-06-26T03:15:56;8;8;
79537;PMS5003;68989;52.032;5.152;2023-06-26T03:18:24;9;9;
79537;PMS5003;68989;52.032;5.152;2023-06-26T03:20:52;9;8;
79537;PMS5003;68989;52.032;5.152;2023-06-26T03:23:21;9;7;
79537;PMS5003;68989;52.032;5.152;2023-06-26T03:25:49;10;10;
79537;PMS5003;68989;52.032;5.152;2023-06-26T03:28:17;10;10;
79537;PMS5003;68989;52.032;5.152;2023-06-26T03:30:44;7;7;
79537;PMS5003;68989;52.032;5.152;2023-06-26T03:33:12;8;8;
79537;PMS5003;68989;52.032;5.152;2023-06-26T03:35:40;12;12;
79537;PMS5003;68989;52.032;5.152;2023-06-26T03:38:09;9;9;
79537;PMS5003;68989;52.032;5.152;2023-06-26T03:40:38;10;10;
79537;PMS5003;68989;52.032;5.152;2023-06-26T03:43:05;9;9;
79537;PMS5003;68989;52.032;5.152;2023-06-26T03:45:35;8;7;
79537;PMS5003;68989;52.032;5.152;2023-06-26T03:48:05;9;9;
79537;PMS5003;68989;52.032;5.152;2023-06-26T03:50:33;11;10;
79537;PMS5003;68989;52.032;5.152;2023-06-26T03:53:01;9;7;
79537;PMS5003;68989;52.032;5.152;2023-06-26T03:55:29;7;7;
79537;PMS5003;68989;52.032;5.152;2023-06-26T03:57:56;5;5;
79537;PMS5003;68989;52.032;5.152;2023-06-26T04:00:25;11;9;
79537;PMS5003;68989;52.032;5.152;2023-06-26T04:02:52;8;8;
79537;PMS5003;68989;52.032;5.152;2023-06-26T04:05:20;9;9;
79537;PMS5003;68989;52.032;5.152;2023-06-26T04:07:49;8;8;
79537;PMS5003;68989;52.032;5.152;2023-06-26T04:10:18;11;11;
79537;PMS5003;68989;52.032;5.152;2023-06-26T04:12:45;7;7;
79537;PMS5003;68989;52.032;5.152;2023-06-26T04:15:13;9;8;
79537;PMS5003;68989;52.032;5.152;2023-06-26T04:17:42;10;9;
79537;PMS5003;68989;52.032;5.152;2023-06-26T04:20:10;7;7;
79537;PMS5003;68989;52.032;5.152;2023-06-26T04:22:38;12;10;
79537;PMS5003;68989;52.032;5.152;2023-06-26T04:25:06;7;7;
79537;PMS5003;68989;52.032;5.152;2023-06-26T04:27:34;8;8;
79537;PMS5003;68989;52.032;5.152;2023-06-26T04:30:03;9;9;
79537;PMS5003;68989;52.032;5.152;2023-06-26T04:32:32;10;10;
79537;PMS5003;68989;52.032;5.152;2023-06-26T04:35:00;9;8;
79537;PMS5003;68989;52.032;5.152;2023-06-26T04:37:27;9;7;
79537;PMS5003;68989;52.032;5.152;2023-06-26T04:39:55;10;9;
79537;PMS5003;68989;52.032;5.152;2023-06-26T04:42:23;10;7;
79537;PMS5003;68989;52.032;5.152;2023-06-26T04:44:51;9;8;
79537;PMS5003;68989;52.032;5.152;2023-06-26T04:47:19;8;8;
79537;PMS5003;68989;52.032;5.152;2023-06-26T04:49:46;9;7;
79537;PMS5003;68989;52.032;5.152;2023-06-26T04:52:14;7;7;
79537;PMS5003;68989;52.032;5.152;2023-06-26T04:54:42;10;10;
79537;PMS5003;68989;52.032;5.152;2023-06-26T04:57:10;8;6;
79537;PMS5003;68989;52.032;5.152;2023-06-26T04:59:38;7;6;
79537;PMS5003;68989;52.032;5.152;2023-06-26T05:02:06;9;9;
79537;PMS5003;68989;52.032;5.152;2023-06-26T05:04:33;8;8;
79537;PMS5003;68989;52.032;5.152;2023-06-26T05:07:01;8;7;
79537;PMS5003;68989;52.032;5.152;2023-06-26T05:09:30;8;7;
79537;PMS5003;68989;52.032;5.152;2023-06-26T05:11:58;9;9;
79537;PMS5003;68989;52.032;5.152;2023-06-26T05:14:28;10;8;
79537;PMS5003;68989;52.032;5.152;2023-06-26T05:16:55;8;8;
79537;PMS5003;68989;52.032;5.152;2023-06-26T05:19:22;9;8;
79537;PMS5003;68989;52.032;5.152;2023-06-26T05:21:48;10;9;
79537;PMS5003;68989;52.032;5.152;2023-06-26T05:24:17;8;8;
79537;PMS5003;68989;52.032;5.152;2023-06-26T05:26:46;9;7;
79537;PMS5003;68989;52.032;5.152;2023-06-26T05:29:13;8;7;
79537;PMS5003;68989;52.032;5.152;2023-06-26T05:31:41;8;7;
79537;PMS5003;68989;52.032;5.152;2023-06-26T05:34:11;9;7;
79537;PMS5003;68989;52.032;5.152;2023-06-26T05:36:39;7;7;
79537;PMS5003;68989;52.032;5.152;2023-06-26T05:39:09;9;6;
79537;PMS5003;68989;52.032;5.152;2023-06-26T05:41:36;6;6;
79537;PMS5003;68989;52.032;5.152;2023-06-26T05:44:04;6;6;
79537;PMS5003;68989;52.032;5.152;2023-06-26T05:46:31;9;7;
79537;PMS5003;68989;52.032;5.152;2023-06-26T05:48:58;4;4;
79537;PMS5003;68989;52.032;5.152;2023-06-26T05:51:25;6;5;
79537;PMS5003;68989;52.032;5.152;2023-06-26T05:53:52;7;6;
79537;PMS5003;68989;52.032;5.152;2023-06-26T05:56:20;6;6;
79537;PMS5003;68989;52.032;5.152;2023-06-26T05:58:48;8;7;
79537;PMS5003;68989;52.032;5.152;2023-06-26T06:01:16;5;5;
79537;PMS5003;68989;52.032;5.152;2023-06-26T06:03:43;5;5;
79537;PMS5003;68989;52.032;5.152;2023-06-26T06:06:10;6;6;
79537;PMS5003;68989;52.032;5.152;2023-06-26T06:08:37;6;4;
79537;PMS5003;68989;52.032;5.152;2023-06-26T06:11:05;4;4;
79537;PMS5003;68989;52.032;5.152;2023-06-26T06:13:32;6;6;
79537;PMS5003;68989;52.032;5.152;2023-06-26T06:15:59;5;5;
79537;PMS5003;68989;52.032;5.152;2023-06-26T06:18:25;9;9;
79537;PMS5003;68989;52.032;5.152;2023-06-26T06:20:52;6;6;
79537;PMS5003;68989;52.032;5.152;2023-06-26T06:23:19;6;6;
79537;PMS5003;68989;52.032;5.152;2023-06-26T06:25:46;7;7;
79537;PMS5003;68989;52.032;5.152;2023-06-26T06:28:14;7;5;
79537;PMS5003;68989;52.032;5.152;2023-06-26T06:30:41;5;5;
79537;PMS5003;68989;52.032;5.152;2023-06-26T06:33:07;7;7;
79537;PMS5003;68989;52.032;5.152;2023-06-26T06:35:35;7;7;
79537;PMS5003;68989;52.032;5.152;2023-06-26T06:38:02;8;6;
79537;PMS5003;68989;52.032;5.152;2023-06-26T06:40:28;8;7;
79537;PMS5003;68989;52.032;5.152;2023-06-26T06:42:55;6;4;
79537;PMS5003;68989;52.032;5.152;2023-06-26T06:45:22;5;5;
79537;PMS5003;68989;52.032;5.152;2023-06-26T06:47:48;5;5;
79537;PMS5003;68989;52.032;5.152;2023-06-26T06:50:15;8;7;
79537;PMS5003;68989;52.032;5.152;2023-06-26T06:52:42;5;5;
79537;PMS5003;68989;52.032;5.152;2023-06-26T06:55:09;6;6;
79537;PMS5003;68989;52.032;5.152;2023-06-26T06:57:37;5;5;
79537;PMS5003;68989;52.032;5.152;2023-06-26T07:00:07;6;4;
79537;PMS5003;68989;52.032;5.152;2023-06-26T07:02:36;6;6;
79537;PMS5003;68989;52.032;5.152;2023-06-26T07:05:04;7;6;
79537;PMS5003;68989;52.032;5.152;2023-06-26T07:07:32;7;7;
79537;PMS5003;68989;52.032;5.152;2023-06-26T07:10:02;7;7;
79537;PMS5003;68989;52.032;5.152;2023-06-26T07:12:30;6;6;
79537;PMS5003;68989;52.032;5.152;2023-06-26T07:14:57;6;6;
79537;PMS5003;68989;52.032;5.152;2023-06-26T07:17:24;5;5;
79537;PMS5003;68989;52.032;5.152;2023-06-26T07:19:50;5;5;
79537;PMS5003;68989;52.032;5.152;2023-06-26T07:22:17;5;5;
79537;PMS5003;68989;52.032;5.152;2023-06-26T07:24:44;7;5;
79537;PMS5003;68989;52.032;5.152;2023-06-26T07:27:12;5;5;
79537;PMS5003;68989;52.032;5.152;2023-06-26T07:29:40;4;4;
79537;PMS5003;68989;52.032;5.152;2023-06-26T07:32:07;6;4;
79537;PMS5003;68989;52.032;5.152;2023-06-26T07:34:34;6;6;
79537;PMS5003;68989;52.032;5.152;2023-06-26T07:37:02;5;4;
79537;PMS5003;68989;52.032;5.152;2023-06-26T07:39:30;4;4;
79537;PMS5003;68989;52.032;5.152;2023-06-26T07:41:57;3;3;
79537;PMS5003;68989;52.032;5.152;2023-06-26T07:44:25;4;4;
79537;PMS5003;68989;52.032;5.152;2023-06-26T07:46:52;4;3;
79537;PMS5003;68989;52.032;5.152;2023-06-26T07:49:20;4;4;
79537;PMS5003;68989;52.032;5.152;2023-06-26T07:51:47;4;4;
79537;PMS5003;68989;52.032;5.152;2023-06-26T07:54:15;5;3;
79537;PMS5003;68989;52.032;5.152;2023-06-26T07:56:58;5;5;
79537;PMS5003;68989;52.032;5.152;2023-06-26T07:59:27;5;5;
79537;PMS5003;68989;52.032;5.152;2023-06-26T08:01:55;6;5;
79537;PMS5003;68989;52.032;5.152;2023-06-26T08:04:24;4;4;
79537;PMS5003;68989;52.032;5.152;2023-06-26T08:06:54;3;3;
79537;PMS5003;68989;52.032;5.152;2023-06-26T08:09:23;4;4;
79537;PMS5003;68989;52.032;5.152;2023-06-26T08:11:53;5;5;
79537;PMS5003;68989;52.032;5.152;2023-06-26T08:14:21;2;2;
79537;PMS5003;68989;52.032;5.152;2023-06-26T08:16:48;2;2;
79537;PMS5003;68989;52.032;5.152;2023-06-26T08:19:16;4;4;
79537;PMS5003;68989;52.032;5.152;2023-06-26T08:21:44;3;3;
79537;PMS5003;68989;52.032;5.152;2023-06-26T08:24:12;3;3;
79537;PMS5003;68989;52.032;5.152;2023-06-26T08:26:40;1;1;
79537;PMS5003;68989;52.032;5.152;2023-06-26T08:29:07;4;3;
79537;PMS5003;68989;52.032;5.152;2023-06-26T08:31:34;3;3;
79537;PMS5003;68989;52.032;5.152;2023-06-26T08:34:02;1;1;
79537;PMS5003;68989;52.032;5.152;2023-06-26T08:36:29;1;1;
79537;PMS5003;68989;52.032;5.152;2023-06-26T08:38:57;3;3;
79537;PMS5003;68989;52.032;5.152;2023-06-26T08:41:25;4;3;
79537;PMS5003;68989;52.032;5.152;2023-06-26T08:43:52;2;1;
79537;PMS5003;68989;52.032;5.152;2023-06-26T08:46:19;3;3;
79537;PMS5003;68989;52.032;5.152;2023-06-26T08:48:48;3;3;
79537;PMS5003;68989;52.032;5.152;2023-06-26T08:51:20;1;1;
79537;PMS5003;68989;52.032;5.152;2023-06-26T08:53:50;3;3;
79537;PMS5003;68989;52.032;5.152;2023-06-26T08:56:22;4;4;
79537;PMS5003;68989;52.032;5.152;2023-06-26T08:58:54;2;2;
79537;PMS5003;68989;52.032;5.152;2023-06-26T09:01:21;6;5;
79537;PMS5003;68989;52.032;5.152;2023-06-26T09:03:49;3;3;
79537;PMS5003;68989;52.032;5.152;2023-06-26T09:06:17;2;2;
79537;PMS5003;68989;52.032;5.152;2023-06-26T09:08:44;2;2;
79537;PMS5003;68989;52.032;5.152;2023-06-26T09:11:11;3;3;
79537;PMS5003;68989;52.032;5.152;2023-06-26T09:13:39;5;5;
79537;PMS5003;68989;52.032;5.152;2023-06-26T09:16:07;3;3;
79537;PMS5003;68989;52.032;5.152;2023-06-26T09:18:35;2;2;
79537;PMS5003;68989;52.032;5.152;2023-06-26T09:21:06;3;3;
79537;PMS5003;68989;52.032;5.152;2023-06-26T09:23:33;3;3;
79537;PMS5003;68989;52.032;5.152;2023-06-26T09:26:02;2;2;
79537;PMS5003;68989;52.032;5.152;2023-06-26T09:28:29;2;2;
79537;PMS5003;68989;52.032;5.152;2023-06-26T09:31:00;3;3;
79537;PMS5003;68989;52.032;5.152;2023-06-26T09:33:28;4;4;
79537;PMS5003;68989;52.032;5.152;2023-06-26T09:36:00;4;4;
79537;PMS5003;68989;52.032;5.152;2023-06-26T09:38:31;3;3;
79537;PMS5003;68989;52.032;5.152;2023-06-26T09:40:58;3;3;
79537;PMS5003;68989;52.032;5.152;2023-06-26T09:43:26;3;3;
79537;PMS5003;68989;52.032;5.152;2023-06-26T09:45:52;3;2;
79537;PMS5003;68989;52.032;5.152;2023-06-26T09:48:19;1;1;
79537;PMS5003;68989;52.032;5.152;2023-06-26T09:50:46;4;4;
79537;PMS5003;68989;52.032;5.152;2023-06-26T09:53:15;3;3;
79537;PMS5003;68989;52.032;5.152;2023-06-26T09:55:42;2;2;
79537;PMS5003;68989;52.032;5.152;2023-06-26T09:58:10;3;3;
79537;PMS5003;68989;52.032;5.152;2023-06-26T10:00:38;2;2;
79537;PMS5003;68989;52.032;5.152;2023-06-26T10:03:05;4;3;
79537;PMS5003;68989;52.032;5.152;2023-06-26T10:05:33;1;1;
79537;PMS5003;68989;52.032;5.152;2023-06-26T10:08:01;3;3;
79537;PMS5003;68989;52.032;5.152;2023-06-26T10:10:31;2;2;
79537;PMS5003;68989;52.032;5.152;2023-06-26T10:13:02;2;2;
79537;PMS5003;68989;52.032;5.152;2023-06-26T10:15:34;2;2;
79537;PMS5003;68989;52.032;5.152;2023-06-26T10:18:03;2;2;
79537;PMS5003;68989;52.032;5.152;2023-06-26T10:20:31;2;2;
79537;PMS5003;68989;52.032;5.152;2023-06-26T10:23:00;1;1;
79537;PMS5003;68989;52.032;5.152;2023-06-26T10:25:29;2;2;
79537;PMS5003;68989;52.032;5.152;2023-06-26T10:27:58;2;2;
79537;PMS5003;68989;52.032;5.152;2023-06-26T10:30:28;2;2;
79537;PMS5003;68989;52.032;5.152;2023-06-26T10:33:00;2;2;
79537;PMS5003;68989;52.032;5.152;2023-06-26T10:35:28;2;2;
79537;PMS5003;68989;52.032;5.152;2023-06-26T10:38:00;1;1;
79537;PMS5003;68989;52.032;5.152;2023-06-26T10:40:40;2;2;
79537;PMS5003;68989;52.032;5.152;2023-06-26T10:43:09;1;1;
79537;PMS5003;68989;52.032;5.152;2023-06-26T10:45:42;3;3;
79537;PMS5003;68989;52.032;5.152;2023-06-26T10:48:12;1;1;
79537;PMS5003;68989;52.032;5.152;2023-06-26T10:50:40;3;3;
79537;PMS5003;68989;52.032;5.152;2023-06-26T10:53:12;2;2;
79537;PMS5003;68989;52.032;5.152;2023-06-26T10:55:54;1;1;
79537;PMS5003;68989;52.032;5.152;2023-06-26T10:58:30;1;1;
79537;PMS5003;68989;52.032;5.152;2023-06-26T11:01:16;2;2;
79537;PMS5003;68989;52.032;5.152;2023-06-26T11:03:46;3;3;
79537;PMS5003;68989;52.032;5.152;2023-06-26T11:06:15;1;1;
79537;PMS5003;68989;52.032;5.152;2023-06-26T11:08:44;2;2;
79537;PMS5003;68989;52.032;5.152;2023-06-26T11:11:13;2;2;
79537;PMS5003;68989;52.032;5.152;2023-06-26T11:13:41;2;2;
79537;PMS5003;68989;52.032;5.152;2023-06-26T11:16:11;2;2;
79537;PMS5003;68989;52.032;5.152;2023-06-26T11:18:39;1;1;
79537;PMS5003;68989;52.032;5.152;2023-06-26T11:21:07;3;3;
79537;PMS5003;68989;52.032;5.152;2023-06-26T11:23:35;2;2;
79537;PMS5003;68989;52.032;5.152;2023-06-26T11:26:19;3;2;
79537;PMS5003;68989;52.032;5.152;2023-06-26T11:28:47;3;2;
79537;PMS5003;68989;52.032;5.152;2023-06-26T11:31:31;1;1;
79537;PMS5003;68989;52.032;5.152;2023-06-26T11:34:00;4;2;
79537;PMS5003;68989;52.032;5.152;2023-06-26T11:36:27;2;0;
79537;PMS5003;68989;52.032;5.152;2023-06-26T11:38:55;2;2;
79537;PMS5003;68989;52.032;5.152;2023-06-26T11:41:23;2;2;
79537;PMS5003;68989;52.032;5.152;2023-06-26T11:43:51;1;0;
79537;PMS5003;68989;52.032;5.152;2023-06-26T11:46:19;3;3;
79537;PMS5003;68989;52.032;5.152;2023-06-26T11:48:47;1;1;
79537;PMS5003;68989;52.032;5.152;2023-06-26T11:51:15;1;0;
79537;PMS5003;68989;52.032;5.152;2023-06-26T11:53:43;1;1;
79537;PMS5003;68989;52.032;5.152;2023-06-26T11:56:13;2;2;
79537;PMS5003;68989;52.032;5.152;2023-06-26T11:58:57;1;1;
79537;PMS5003;68989;52.032;5.152;2023-06-26T12:01:25;2;2;
79537;PMS5003;68989;52.032;5.152;2023-06-26T12:03:54;2;2;
79537;PMS5003;68989;52.032;5.152;2023-06-26T12:06:24;2;2;
79537;PMS5003;68989;52.032;5.152;2023-06-26T12:08:52;1;1;
79537;PMS5003;68989;52.032;5.152;2023-06-26T12:11:19;2;2;
79537;PMS5003;68989;52.032;5.152;2023-06-26T12:13:49;1;1;
79537;PMS5003;68989;52.032;5.152;2023-06-26T12:16:17;1;1;
79537;PMS5003;68989;52.032;5.152;2023-06-26T12:18:45;1;1;
79537;PMS5003;68989;52.032;5.152;2023-06-26T12:21:33;4;1;
79537;PMS5003;68989;52.032;5.152;2023-06-26T12:24:13;0;0;
79537;PMS5003;68989;52.032;5.152;2023-06-26T12:26:43;1;1;
79537;PMS5003;68989;52.032;5.152;2023-06-26T12:29:12;1;1;
79537;PMS5003;68989;52.032;5.152;2023-06-26T12:31:40;1;1;
79537;PMS5003;68989;52.032;5.152;2023-06-26T12:34:09;1;1;
79537;PMS5003;68989;52.032;5.152;2023-06-26T12:36:40;2;0;
79537;PMS5003;68989;52.032;5.152;2023-06-26T12:39:09;2;2;
79537;PMS5003;68989;52.032;5.152;2023-06-26T12:41:44;0;0;
79537;PMS5003;68989;52.032;5.152;2023-06-26T12:44:17;0;0;
79537;PMS5003;68989;52.032;5.152;2023-06-26T12:46:46;4;2;
79537;PMS5003;68989;52.032;5.152;2023-06-26T12:49:13;0;0;
79537;PMS5003;68989;52.032;5.152;2023-06-26T12:51:41;1;1;
79537;PMS5003;68989;52.032;5.152;2023-06-26T12:54:08;1;1;
79537;PMS5003;68989;52.032;5.152;2023-06-26T12:56:36;1;1;
79537;PMS5003;68989;52.032;5.152;2023-06-26T12:59:04;3;2;
79537;PMS5003;68989;52.032;5.152;2023-06-26T13:01:31;1;1;
79537;PMS5003;68989;52.032;5.152;2023-06-26T13:03:59;1;1;
79537;PMS5003;68989;52.032;5.152;2023-06-26T13:06:26;1;1;
79537;PMS5003;68989;52.032;5.152;2023-06-26T13:08:53;5;2;
79537;PMS5003;68989;52.032;5.152;2023-06-26T13:11:20;2;2;
79537;PMS5003;68989;52.032;5.152;2023-06-26T13:13:47;1;1;
79537;PMS5003;68989;52.032;5.152;2023-06-26T13:16:15;2;2;
79537;PMS5003;68989;52.032;5.152;2023-06-26T13:18:42;2;2;
79537;PMS5003;68989;52.032;5.152;2023-06-26T13:21:09;3;1;
79537;PMS5003;68989;52.032;5.152;2023-06-26T13:23:36;1;1;
79537;PMS5003;68989;52.032;5.152;2023-06-26T13:26:04;4;2;
79537;PMS5003;68989;52.032;5.152;2023-06-26T13:28:31;2;2;
79537;PMS5003;68989;52.032;5.152;2023-06-26T13:30:58;1;1;
79537;PMS5003;68989;52.032;5.152;2023-06-26T13:33:25;1;1;
79537;PMS5003;68989;52.032;5.152;2023-06-26T13:35:52;1;1;
79537;PMS5003;68989;52.032;5.152;2023-06-26T13:38:20;3;2;
79537;PMS5003;68989;52.032;5.152;2023-06-26T13:40:47;1;1;
79537;PMS5003;68989;52.032;5.152;2023-06-26T13:43:14;1;1;
79537;PMS5003;68989;52.032;5.152;2023-06-26T13:45:42;2;2;
79537;PMS5003;68989;52.032;5.152;2023-06-26T13:48:09;1;1;
79537;PMS5003;68989;52.032;5.152;2023-06-26T13:50:36;3;1;
79537;PMS5003;68989;52.032;5.152;2023-06-26T13:53:02;2;2;
79537;PMS5003;68989;52.032;5.152;2023-06-26T13:55:29;1;1;
79537;PMS5003;68989;52.032;5.152;2023-06-26T13:57:57;1;1;
79537;PMS5003;68989;52.032;5.152;2023-06-26T14:00:24;1;1;
79537;PMS5003;68989;52.032;5.152;2023-06-26T14:02:52;1;1;
79537;PMS5003;68989;52.032;5.152;2023-06-26T14:05:19;1;1;
79537;PMS5003;68989;52.032;5.152;2023-06-26T14:07:47;3;2;
79537;PMS5003;68989;52.032;5.152;2023-06-26T14:10:14;1;1;
79537;PMS5003;68989;52.032;5.152;2023-06-26T14:12:42;1;1;
79537;PMS5003;68989;52.032;5.152;2023-06-26T14:15:10;2;2;
79537;PMS5003;68989;52.032;5.152;2023-06-26T14:17:37;4;2;
79537;PMS5003;68989;52.032;5.152;2023-06-26T14:20:05;2;1;
79537;PMS5003;68989;52.032;5.152;2023-06-26T14:22:33;2;2;
79537;PMS5003;68989;52.032;5.152;2023-06-26T14:24:59;1;1;
79537;PMS5003;68989;52.032;5.152;2023-06-26T14:27:27;1;1;
79537;PMS5003;68989;52.032;5.152;2023-06-26T14:29:54;2;2;
79537;PMS5003;68989;52.032;5.152;2023-06-26T14:32:22;3;3;
79537;PMS5003;68989;52.032;5.152;2023-06-26T14:34:50;2;2;
79537;PMS5003;68989;52.032;5.152;2023-06-26T14:37:16;1;1;
79537;PMS5003;68989;52.032;5.152;2023-06-26T14:39:43;1;1;
79537;PMS5003;68989;52.032;5.152;2023-06-26T14:42:10;2;2;
79537;PMS5003;68989;52.032;5.152;2023-06-26T14:44:37;2;2;
79537;PMS5003;68989;52.032;5.152;2023-06-26T14:47:05;3;1;
79537;PMS5003;68989;52.032;5.152;2023-06-26T14:49:32;1;1;
79537;PMS5003;68989;52.032;5.152;2023-06-26T14:51:59;5;4;
79537;PMS5003;68989;52.032;5.152;2023-06-26T14:54:27;2;2;
79537;PMS5003;68989;52.032;5.152;2023-06-26T14:56:54;3;2;
79537;PMS5003;68989;52.032;5.152;2023-06-26T14:59:22;1;1;
79537;PMS5003;68989;52.032;5.152;2023-06-26T15:01:49;1;1;
79537;PMS5003;68989;52.032;5.152;2023-06-26T15:04:16;2;2;
79537;PMS5003;68989;52.032;5.152;2023-06-26T15:06:43;2;2;
79537;PMS5003;68989;52.032;5.152;2023-06-26T15:09:10;1;1;
79537;PMS5003;68989;52.032;5.152;2023-06-26T15:11:36;1;1;
79537;PMS5003;68989;52.032;5.152;2023-06-26T15:14:03;0;0;
79537;PMS5003;68989;52.032;5.152;2023-06-26T15:16:30;2;2;
79537;PMS5003;68989;52.032;5.152;2023-06-26T15:18:57;2;2;
79537;PMS5003;68989;52.032;5.152;2023-06-26T15:21:25;2;1;
79537;PMS5003;68989;52.032;5.152;2023-06-26T15:23:52;2;2;
79537;PMS5003;68989;52.032;5.152;2023-06-26T15:26:19;2;2;
79537;PMS5003;68989;52.032;5.152;2023-06-26T15:28:46;2;2;
79537;PMS5003;68989;52.032;5.152;2023-06-26T15:31:13;3;3;
79537;PMS5003;68989;52.032;5.152;2023-06-26T15:33:41;1;1;
79537;PMS5003;68989;52.032;5.152;2023-06-26T15:36:09;1;1;
79537;PMS5003;68989;52.032;5.152;2023-06-26T15:38:35;1;1;
79537;PMS5003;68989;52.032;5.152;2023-06-26T15:41:03;0;0;
79537;PMS5003;68989;52.032;5.152;2023-06-26T15:43:31;1;1;
79537;PMS5003;68989;52.032;5.152;2023-06-26T15:45:59;3;3;
79537;PMS5003;68989;52.032;5.152;2023-06-26T15:48:26;1;1;
79537;PMS5003;68989;52.032;5.152;2023-06-26T15:50:53;1;1;
79537;PMS5003;68989;52.032;5.152;2023-06-26T15:53:21;2;1;
79537;PMS5003;68989;52.032;5.152;2023-06-26T15:56:00;3;3;
79537;PMS5003;68989;52.032;5.152;2023-06-26T15:58:28;1;1;
79537;PMS5003;68989;52.032;5.152;2023-06-26T16:00:55;2;2;
79537;PMS5003;68989;52.032;5.152;2023-06-26T16:03:22;4;2;
79537;PMS5003;68989;52.032;5.152;2023-06-26T16:05:50;2;2;
79537;PMS5003;68989;52.032;5.152;2023-06-26T16:08:16;1;1;
79537;PMS5003;68989;52.032;5.152;2023-06-26T16:10:43;3;2;
79537;PMS5003;68989;52.032;5.152;2023-06-26T16:13:10;2;2;
79537;PMS5003;68989;52.032;5.152;2023-06-26T16:15:36;2;2;
79537;PMS5003;68989;52.032;5.152;2023-06-26T16:18:03;4;3;
79537;PMS5003;68989;52.032;5.152;2023-06-26T16:20:30;3;3;
79537;PMS5003;68989;52.032;5.152;2023-06-26T16:22:57;5;2;
79537;PMS5003;68989;52.032;5.152;2023-06-26T16:25:24;1;1;
79537;PMS5003;68989;52.032;5.152;2023-06-26T16:27:51;3;3;
79537;PMS5003;68989;52.032;5.152;2023-06-26T16:30:17;2;2;
79537;PMS5003;68989;52.032;5.152;2023-06-26T16:32:44;1;1;
79537;PMS5003;68989;52.032;5.152;2023-06-26T16:35:11;3;3;
79537;PMS5003;68989;52.032;5.152;2023-06-26T16:37:38;3;3;
79537;PMS5003;68989;52.032;5.152;2023-06-26T16:40:06;4;2;
79537;PMS5003;68989;52.032;5.152;2023-06-26T16:42:34;1;1;
79537;PMS5003;68989;52.032;5.152;2023-06-26T16:45:00;2;2;
79537;PMS5003;68989;52.032;5.152;2023-06-26T16:47:28;2;2;
79537;PMS5003;68989;52.032;5.152;2023-06-26T16:49:55;4;4;
79537;PMS5003;68989;52.032;5.152;2023-06-26T16:52:22;4;2;
79537;PMS5003;68989;52.032;5.152;2023-06-26T16:54:49;2;2;